Time;durP1;ratioP1;P1;durP2;ratioP2;P2;SDS_P1;SDS_P2;PMS_P1;PMS_P2;Temp;Humidity;BMP_temperature;BMP_pressure;BME280_temperature;BME280_humidity;BME280_pressure;Samples;Min_cycle;Max_cycle;Signal;HPM_P1;HPM_P2
2021/01/13 00:01:38;;;;;;;53.65;28.30;;;;;;;2.92;66.78;99192.78;4459110;32;34350;-82
2021/01/13 00:04:06;;;;;;;55.12;27.92;;;;;;;3.20;65.56;99182.56;4454391;32;33705;-82
2021/01/13 00:06:33;;;;;;;48.33;25.37;;;;;;;2.87;66.58;99180.75;4459551;32;33933;-82
2021/01/13 00:09:00;;;;;;;48.28;26.95;;;;;;;3.26;65.38;99171.97;4446669;32;34591;-82
2021/01/13 00:11:28;;;;;;;53.30;28.00;;;;;;;3.18;65.48;99179.16;4445857;32;34336;-82
2021/01/13 00:13:55;;;;;;;49.35;27.95;;;;;;;2.89;66.57;99171.13;4445937;32;33741;-83
2021/01/13 00:16:22;;;;;;;49.65;26.40;;;;;;;2.83;67.04;99170.37;4438638;32;33927;-82
2021/01/13 00:18:50;;;;;;;55.33;26.60;;;;;;;3.23;65.89;99161.63;4460139;32;34386;-83
2021/01/13 00:21:17;;;;;;;51.67;27.75;;;;;;;3.06;66.04;99162.03;4459515;32;34542;-83
2021/01/13 00:23:45;;;;;;;50.47;26.80;;;;;;;3.14;65.95;99167.06;4447804;32;31836;-83
2021/01/13 00:26:22;;;;;;;57.65;27.37;;;;;;;3.30;65.46;99163.19;4456538;32;33243;-83
2021/01/13 00:28:53;;;;;;;49.55;26.25;;;;;;;3.19;65.78;99170.44;4450377;32;32342;-84
2021/01/13 00:31:20;;;;;;;55.90;26.87;;;;;;;3.28;65.45;99170.22;4450360;32;33455;-84
2021/01/13 00:33:48;;;;;;;57.75;28.67;;;;;;;3.32;65.39;99166.62;4448152;32;33664;-83
2021/01/13 00:36:26;;;;;;;53.70;28.42;;;;;;;3.23;65.54;99156.41;4458100;32;34413;-84
2021/01/13 00:38:53;;;;;;;50.33;27.08;;;;;;;3.34;65.28;99154.37;4452104;32;33632;-84
2021/01/13 00:41:21;;;;;;;49.70;28.17;;;;;;;3.36;65.23;99159.56;4451886;32;33445;-84
2021/01/13 00:43:50;;;;;;;50.00;28.10;;;;;;;3.43;64.74;99168.13;4463172;32;34686;-84
2021/01/13 00:46:18;;;;;;;51.90;28.65;;;;;;;3.33;64.98;99173.56;4469473;32;33477;-84
2021/01/13 00:48:46;;;;;;;51.75;29.50;;;;;;;3.60;64.19;99168.53;4443434;32;34545;-83
2021/01/13 00:51:18;;;;;;;49.85;27.37;;;;;;;3.50;64.71;99161.81;4464723;32;33758;-84
2021/01/13 00:53:46;;;;;;;49.08;28.35;;;;;;;3.29;65.08;99166.69;4449598;32;34518;-84
2021/01/13 00:56:21;;;;;;;56.92;29.48;;;;;;;3.39;64.97;99162.09;4446977;32;31630;-84
2021/01/13 00:58:49;;;;;;;48.38;28.12;;;;;;;3.41;65.11;99164.66;4460462;32;33297;-83
2021/01/13 01:01:17;;;;;;;46.78;25.25;;;;;;;3.49;64.89;99155.75;4458519;32;33768;-83
2021/01/13 01:03:44;;;;;;;54.25;28.83;;;;;;;3.63;64.43;99160.63;4450392;32;34271;-83
2021/01/13 01:06:12;;;;;;;49.15;27.87;;;;;;;3.66;64.33;99165.78;4453883;32;34492;-83
2021/01/13 01:08:40;;;;;;;52.45;27.92;;;;;;;3.47;65.03;99174.97;4443825;32;33564;-84
2021/01/13 01:11:08;;;;;;;48.10;26.92;;;;;;;3.87;63.33;99168.72;4449440;32;35117;-83
2021/01/13 01:13:37;;;;;;;55.25;26.25;;;;;;;3.81;63.38;99167.12;4462057;32;34332;-84
2021/01/13 01:16:04;;;;;;;48.25;26.58;;;;;;;3.86;63.23;99173.09;4460133;32;33323;-83
2021/01/13 01:18:31;;;;;;;48.65;27.20;;;;;;;3.39;65.00;99171.69;4461947;32;34977;-83
2021/01/13 01:20:59;;;;;;;50.85;28.02;;;;;;;3.29;65.44;99171.06;4448765;32;34311;-83
2021/01/13 01:23:26;;;;;;;49.30;28.33;;;;;;;3.20;66.00;99172.13;4448935;32;34476;-83
2021/01/13 01:25:53;;;;;;;57.83;30.37;;;;;;;3.24;66.01;99171.16;4461376;32;32707;-83
2021/01/13 01:28:21;;;;;;;48.60;26.65;;;;;;;3.23;66.06;99177.28;4461377;32;33399;-83
2021/01/13 01:30:48;;;;;;;51.72;26.85;;;;;;;3.42;65.31;99174.22;4462124;32;33856;-84
2021/01/13 01:33:15;;;;;;;50.22;26.30;;;;;;;3.40;65.50;99170.78;4452015;32;34708;-83
2021/01/13 01:35:43;;;;;;;49.22;26.87;;;;;;;3.51;65.16;99150.50;4449998;32;33390;-83
2021/01/13 01:38:10;;;;;;;50.05;27.15;;;;;;;3.51;65.23;99155.72;4458429;32;34691;-83
2021/01/13 01:40:37;;;;;;;48.03;26.55;;;;;;;3.73;64.56;99150.81;4464782;32;33838;-82
2021/01/13 01:43:06;;;;;;;52.13;27.95;;;;;;;3.53;65.27;99151.31;4449166;32;33097;-83
2021/01/13 01:45:34;;;;;;;47.40;25.92;;;;;;;3.62;65.00;99145.00;4462463;32;32900;-83
2021/01/13 01:48:15;;;;;;;48.85;25.67;;;;;;;3.65;64.89;99153.59;4444957;32;33704;-82
2021/01/13 01:50:45;;;;;;;43.28;25.10;;;;;;;3.61;65.12;99157.22;4459762;32;33863;-83
2021/01/13 01:53:18;;;;;;;55.42;27.77;;;;;;;3.50;65.49;99154.00;4465680;32;33409;-83
2021/01/13 01:55:51;;;;;;;45.97;24.92;;;;;;;3.62;65.27;99158.06;4461177;32;33863;-83
2021/01/13 01:58:28;;;;;;;47.40;26.50;;;;;;;3.64;65.19;99151.03;4463201;32;33694;-83
2021/01/13 02:01:00;;;;;;;44.10;25.25;;;;;;;3.72;64.81;99155.16;4460371;32;33846;-83
2021/01/13 02:03:49;;;;;;;47.33;26.00;;;;;;;4.02;63.66;99155.25;4450593;32;34659;-83
2021/01/13 02:06:17;;;;;;;44.50;24.20;;;;;;;3.89;63.64;99148.63;4452972;32;32782;-83
2021/01/13 02:08:46;;;;;;;44.13;24.67;;;;;;;3.73;64.43;99146.44;4461860;32;33827;-82
2021/01/13 02:11:18;;;;;;;46.03;25.83;;;;;;;3.68;64.83;99155.28;4462566;32;34500;-82
2021/01/13 02:13:46;;;;;;;43.90;23.90;;;;;;;3.81;64.65;99149.72;4446119;32;33618;-83
2021/01/13 02:16:16;;;;;;;42.47;24.37;;;;;;;3.58;64.81;99155.53;4448158;32;33297;-83
2021/01/13 02:18:45;;;;;;;45.42;24.45;;;;;;;3.85;63.89;99153.09;4447375;32;33904;-83
2021/01/13 02:21:20;;;;;;;44.47;23.65;;;;;;;3.94;63.86;99162.41;4461222;32;34313;-83
2021/01/13 02:23:55;;;;;;;40.72;23.10;;;;;;;3.72;64.36;99160.41;4461448;32;33790;-83
2021/01/13 02:26:50;;;;;;;42.65;23.25;;;;;;;3.65;64.39;99152.75;4459687;32;33244;-83
2021/01/13 02:29:58;;;;;;;41.53;23.52;;;;;;;3.65;64.70;99152.75;4447210;32;33875;-83
2021/01/13 02:32:34;;;;;;;39.70;21.40;;;;;;;3.74;64.27;99153.38;4401003;32;34733;-83
2021/01/13 02:35:06;;;;;;;48.13;23.27;;;;;;;3.54;65.08;99160.84;4399611;32;33446;-83
2021/01/13 02:37:37;;;;;;;40.95;23.58;;;;;;;3.69;64.46;99149.16;4442037;32;34087;-83
2021/01/13 02:40:06;;;;;;;43.20;23.52;;;;;;;3.76;64.09;99150.72;4461135;32;33572;-83
2021/01/13 02:42:41;;;;;;;45.35;24.08;;;;;;;3.64;64.70;99146.66;4458611;32;34486;-83
2021/01/13 02:45:13;;;;;;;46.03;23.10;;;;;;;3.68;64.47;99147.47;4446182;32;34006;-83
2021/01/13 02:48:03;;;;;;;42.10;23.95;;;;;;;3.78;64.32;99144.56;4459381;32;33159;-82
2021/01/13 02:50:33;;;;;;;42.05;21.98;;;;;;;3.90;63.88;99140.78;4459153;32;33698;-83
2021/01/13 02:53:09;;;;;;;39.40;21.10;;;;;;;3.81;64.44;99154.94;4445534;32;33685;-83
2021/01/13 02:55:41;;;;;;;35.47;20.20;;;;;;;3.61;65.61;99149.38;4445803;32;32487;-84
2021/01/13 02:58:11;;;;;;;33.53;19.37;;;;;;;3.47;66.87;99149.72;4460530;32;33240;-83
2021/01/13 03:00:40;;;;;;;31.45;19.40;;;;;;;3.68;66.41;99157.91;4461653;32;33636;-84
2021/01/13 03:03:07;;;;;;;40.50;20.10;;;;;;;3.45;67.75;99161.94;4451458;32;33606;-83
2021/01/13 03:05:35;;;;;;;31.52;18.27;;;;;;;3.47;68.19;99170.63;4453880;32;33659;-83
2021/01/13 03:08:06;;;;;;;38.03;19.15;;;;;;;3.43;68.32;99157.69;4460713;32;34300;-84
2021/01/13 03:10:36;;;;;;;31.67;17.87;;;;;;;3.19;69.39;99157.38;4453719;32;32493;-84
2021/01/13 03:13:05;;;;;;;32.67;18.08;;;;;;;3.50;68.38;99146.16;4465336;32;33870;-83
2021/01/13 03:15:34;;;;;;;29.40;18.35;;;;;;;3.51;68.19;99163.53;4445854;32;32591;-84
2021/01/13 03:18:36;;;;;;;31.50;18.52;;;;;;;3.58;68.07;99141.63;4459172;32;33455;-84
2021/01/13 03:21:09;;;;;;;36.45;17.80;;;;;;;3.85;67.14;99163.53;4451336;32;33683;-85
2021/01/13 03:23:58;;;;;;;33.30;18.45;;;;;;;3.89;66.77;99166.91;4451119;32;35788;-85
2021/01/13 03:26:31;;;;;;;30.15;17.30;;;;;;;3.47;68.39;99181.06;4460518;32;33338;-85
2021/01/13 03:29:00;;;;;;;32.83;17.10;;;;;;;3.53;68.35;99177.44;4444802;32;33218;-83
2021/01/13 03:31:30;;;;;;;31.30;17.80;;;;;;;3.78;67.44;99170.66;4448294;32;35173;-82
2021/01/13 03:34:21;;;;;;;27.77;16.33;;;;;;;3.69;68.03;99177.87;4444127;32;33730;-84
2021/01/13 03:37:18;;;;;;;28.60;16.73;;;;;;;3.66;67.93;99176.22;4456994;32;33414;-84
2021/01/13 03:39:46;;;;;;;30.27;16.83;;;;;;;3.56;68.48;99191.25;4438268;32;32855;-83
2021/01/13 03:42:15;;;;;;;29.05;16.55;;;;;;;3.68;67.71;99184.84;4446198;32;34220;-83
2021/01/13 03:44:44;;;;;;;27.92;15.73;;;;;;;3.65;67.77;99191.91;4446870;32;33793;-84
2021/01/13 03:47:30;;;;;;;28.02;16.85;;;;;;;3.73;67.40;99190.81;4459638;32;33741;-85
2021/01/13 03:50:11;;;;;;;27.90;15.98;;;;;;;3.90;66.89;99193.00;4458596;32;34243;-84
2021/01/13 03:52:45;;;;;;;31.05;16.55;;;;;;;4.15;66.03;99195.81;4463038;32;34735;-84
2021/01/13 03:55:15;;;;;;;27.20;15.63;;;;;;;4.10;66.14;99197.69;4446894;32;34994;-85
2021/01/13 03:57:42;;;;;;;26.67;15.82;;;;;;;4.17;65.94;99199.22;4461152;32;34791;-84
2021/01/13 04:00:12;;;;;;;27.23;16.42;;;;;;;4.18;65.67;99202.69;4461130;32;33315;-85
2021/01/13 04:02:54;;;;;;;29.05;16.55;;;;;;;4.09;65.36;99201.22;4445756;32;33616;-85
2021/01/13 04:05:23;;;;;;;25.88;15.02;;;;;;;4.37;64.34;99207.41;4463185;32;33729;-84
2021/01/13 04:07:51;;;;;;;26.67;15.32;;;;;;;4.24;64.36;99211.25;4449010;32;32924;-85
2021/01/13 04:10:19;;;;;;;24.65;15.15;;;;;;;4.14;64.56;99203.69;4445566;32;34085;-85
2021/01/13 04:13:24;;;;;;;26.12;15.65;;;;;;;4.06;64.34;99196.06;4448542;32;33672;-84
2021/01/13 04:15:53;;;;;;;22.80;14.95;;;;;;;3.78;64.76;99194.16;4456461;32;34640;-84
2021/01/13 04:18:21;;;;;;;24.55;13.07;;;;;;;3.64;65.12;99198.88;4447676;32;33652;-85
2021/01/13 04:20:48;;;;;;;25.05;13.62;;;;;;;3.59;65.05;99198.16;4446918;32;33340;-86
2021/01/13 04:23:16;;;;;;;23.38;14.23;;;;;;;3.64;64.94;99192.81;4447024;32;33508;-84
2021/01/13 04:25:43;;;;;;;22.27;14.20;;;;;;;3.75;64.68;99204.72;4443431;32;33576;-83
2021/01/13 04:28:11;;;;;;;23.50;13.27;;;;;;;3.97;63.94;99214.59;4459607;32;34351;-82
2021/01/13 04:30:39;;;;;;;22.85;12.75;;;;;;;3.83;64.31;99215.78;4459252;32;33018;-83
2021/01/13 04:33:07;;;;;;;22.13;12.85;;;;;;;3.77;64.44;99223.78;4463249;32;33588;-83
2021/01/13 04:35:34;;;;;;;22.52;14.20;;;;;;;3.57;64.84;99218.22;4449167;32;34387;-82
2021/01/13 04:38:03;;;;;;;19.00;11.82;;;;;;;3.17;66.38;99234.81;4460741;32;34594;-83
2021/01/13 04:40:37;;;;;;;21.58;12.20;;;;;;;3.31;65.54;99231.87;4444734;32;33100;-83
2021/01/13 04:43:10;;;;;;;18.85;11.12;;;;;;;3.40;65.64;99228.19;4445715;32;33624;-83
2021/01/13 04:45:44;;;;;;;17.90;10.80;;;;;;;3.36;65.32;99234.38;4459603;32;34921;-83
2021/01/13 04:48:18;;;;;;;16.15;10.05;;;;;;;3.42;65.38;99239.44;4459044;32;33754;-84
2021/01/13 04:50:50;;;;;;;17.23;9.95;;;;;;;3.41;65.86;99233.38;4459688;32;33039;-84
2021/01/13 04:53:22;;;;;;;16.58;10.98;;;;;;;3.55;65.20;99223.47;4443849;32;33670;-84
2021/01/13 04:55:55;;;;;;;54.05;30.70;;;;;;;3.36;65.39;99229.16;4458633;32;33458;-84
2021/01/13 04:58:41;;;;;;;48.03;29.58;;;;;;;3.45;65.42;99223.72;4457862;32;33787;-83
2021/01/13 05:01:18;;;;;;;38.95;23.35;;;;;;;3.56;65.05;99224.31;4459098;32;33216;-84
2021/01/13 05:03:59;;;;;;;22.62;13.00;;;;;;;3.59;64.96;99225.09;4461171;32;33418;-84
2021/01/13 05:06:47;;;;;;;52.08;26.00;;;;;;;3.45;65.26;99237.63;4431185;32;34765;-83
2021/01/13 05:09:18;;;;;;;58.28;27.90;;;;;;;3.03;67.36;99242.09;4451373;32;34386;-83
2021/01/13 05:11:47;;;;;;;47.92;24.17;;;;;;;3.16;66.60;99246.13;4463100;32;33237;-83
2021/01/13 05:14:16;;;;;;;38.85;18.52;;;;;;;3.25;66.08;99250.28;4448888;32;34053;-83
2021/01/13 05:16:50;;;;;;;31.98;18.00;;;;;;;3.38;65.78;99249.13;4447606;32;33652;-83
2021/01/13 05:19:24;;;;;;;29.58;16.98;;;;;;;3.78;64.48;99254.22;4459886;32;33721;-83
2021/01/13 05:21:55;;;;;;;21.87;13.15;;;;;;;3.69;64.63;99269.25;4463997;32;34806;-83
2021/01/13 05:24:24;;;;;;;23.20;13.27;;;;;;;3.62;64.08;99267.72;4459906;32;34292;-83
2021/01/13 05:27:01;;;;;;;20.23;12.90;;;;;;;3.55;64.52;99266.97;4459832;32;33737;-83
2021/01/13 05:29:36;;;;;;;15.68;9.75;;;;;;;3.73;63.84;99281.34;4459395;32;33082;-83
2021/01/13 05:32:06;;;;;;;12.48;6.22;;;;;;;3.34;65.31;99269.22;4444510;32;33060;-83
2021/01/13 05:34:37;;;;;;;15.45;7.20;;;;;;;3.24;65.22;99292.94;4458910;32;33604;-83
2021/01/13 05:37:17;;;;;;;15.50;7.95;;;;;;;3.06;66.33;99279.41;4456804;32;32965;-83
2021/01/13 05:39:47;;;;;;;13.15;6.80;;;;;;;3.55;64.65;99286.09;4459800;32;32838;-83
2021/01/13 05:42:15;;;;;;;10.55;5.85;;;;;;;3.66;63.48;99293.72;4432495;32;34102;-83
2021/01/13 05:44:45;;;;;;;10.27;6.05;;;;;;;3.46;64.79;99304.59;4458889;32;33614;-84
2021/01/13 05:47:53;;;;;;;13.15;6.72;;;;;;;3.31;64.79;99305.78;4450307;32;35576;-82
2021/01/13 05:50:24;;;;;;;7.55;5.53;;;;;;;3.61;63.91;99308.63;4458441;32;34578;-83
2021/01/13 05:53:03;;;;;;;6.50;4.10;;;;;;;3.45;64.53;99305.50;4457166;32;32285;-83
2021/01/13 05:55:30;;;;;;;5.87;3.62;;;;;;;3.44;64.12;99313.38;4449660;32;33154;-84
2021/01/13 05:57:59;;;;;;;8.93;4.37;;;;;;;3.50;64.13;99311.47;4448373;32;33725;-84
2021/01/13 06:00:29;;;;;;;9.10;5.07;;;;;;;3.50;64.10;99311.47;4454509;32;33702;-84
2021/01/13 06:02:57;;;;;;;14.13;5.87;;;;;;;3.47;63.71;99310.69;4457139;32;32852;-83
2021/01/13 06:05:26;;;;;;;14.15;7.47;;;;;;;3.50;63.73;99308.00;4460953;32;32673;-83
2021/01/13 06:07:56;;;;;;;23.80;10.50;;;;;;;3.35;64.02;99311.81;4449599;32;33479;-83
2021/01/13 06:10:33;;;;;;;13.38;6.60;;;;;;;3.79;63.14;99318.62;4463831;32;35795;-83
2021/01/13 06:13:03;;;;;;;10.80;5.43;;;;;;;3.52;63.80;99316.66;4461271;32;33197;-84
2021/01/13 06:15:31;;;;;;;4.65;3.15;;;;;;;3.68;63.60;99318.03;4447267;32;33718;-85
2021/01/13 06:18:00;;;;;;;5.12;2.95;;;;;;;3.70;63.34;99316.22;4448503;32;33705;-86
2021/01/13 06:20:29;;;;;;;4.80;2.53;;;;;;;3.61;63.37;99319.06;4434004;32;33510;-86
2021/01/13 06:22:58;;;;;;;3.62;2.83;;;;;;;3.58;63.65;99321.75;4450211;32;35523;-86
2021/01/13 06:25:30;;;;;;;6.50;2.47;;;;;;;3.43;64.31;99329.94;4437428;32;34329;-85
2021/01/13 06:27:58;;;;;;;6.43;3.33;;;;;;;3.68;62.90;99332.81;4450702;32;33094;-84
2021/01/13 06:30:47;;;;;;;5.10;3.60;;;;;;;3.59;62.73;99337.34;4463140;32;32643;-84
2021/01/13 06:33:24;;;;;;;7.37;3.20;;;;;;;3.52;63.33;99334.94;4448584;32;31047;-84
2021/01/13 06:36:25;;;;;;;4.90;2.72;;;;;;;3.49;63.42;99342.84;4459404;32;33173;-84
2021/01/13 06:38:58;;;;;;;6.82;2.95;;;;;;;3.11;64.07;99336.69;4464142;32;32814;-84
2021/01/13 06:41:28;;;;;;;5.03;2.60;;;;;;;3.07;63.72;99342.84;4460620;32;33601;-84
2021/01/13 06:44:04;;;;;;;3.35;2.65;;;;;;;3.30;62.29;99344.97;4460887;32;33365;-83
2021/01/13 06:46:33;;;;;;;4.10;2.58;;;;;;;3.22;62.18;99342.53;4446501;32;34313;-84
2021/01/13 06:49:11;;;;;;;4.85;2.65;;;;;;;3.12;62.87;99356.66;4436020;32;35060;-84
2021/01/13 06:51:51;;;;;;;5.68;2.67;;;;;;;3.17;61.96;99352.19;4462718;32;33700;-84
2021/01/13 06:54:20;;;;;;;5.82;2.42;;;;;;;3.56;60.47;99345.28;4451267;32;34094;-84
2021/01/13 06:56:53;;;;;;;5.37;2.42;;;;;;;3.27;60.99;99350.25;4446862;32;33702;-84
2021/01/13 06:59:25;;;;;;;3.70;2.10;;;;;;;3.38;60.22;99358.72;4461735;32;33656;-84
2021/01/13 07:01:54;;;;;;;4.75;2.08;;;;;;;3.29;60.10;99359.78;4456564;32;33560;-84
2021/01/13 07:04:25;;;;;;;2.60;1.67;;;;;;;3.37;59.53;99377.00;4460033;32;32394;-84
2021/01/13 07:07:05;;;;;;;4.87;2.35;;;;;;;3.25;59.82;99381.59;4455866;32;33748;-84
2021/01/13 07:09:34;;;;;;;4.85;2.08;;;;;;;3.31;59.19;99380.62;4463548;32;31798;-83
2021/01/13 07:12:11;;;;;;;4.28;3.00;;;;;;;3.23;59.99;99386.00;4449320;32;33123;-83
2021/01/13 07:14:44;;;;;;;5.53;2.75;;;;;;;3.63;57.73;99389.50;4459780;32;32897;-83
2021/01/13 07:17:20;;;;;;;2.95;1.85;;;;;;;2.82;60.29;99390.28;4457401;32;31678;-83
2021/01/13 07:19:52;;;;;;;8.98;2.50;;;;;;;3.22;58.75;99391.25;4447397;32;34382;-83
2021/01/13 07:22:27;;;;;;;3.75;1.98;;;;;;;3.16;59.58;99400.06;4431756;32;34001;-83
2021/01/13 07:24:55;;;;;;;4.05;2.10;;;;;;;3.66;57.35;99397.28;4457545;32;33103;-83
2021/01/13 07:27:23;;;;;;;2.10;1.30;;;;;;;3.41;57.09;99397.78;4456158;32;34317;-83
2021/01/13 07:29:50;;;;;;;2.12;1.48;;;;;;;3.32;57.48;99405.81;4446580;32;33593;-83
2021/01/13 07:32:25;;;;;;;4.18;1.35;;;;;;;3.38;57.60;99407.47;4447012;32;34754;-83
2021/01/13 07:34:54;;;;;;;2.97;1.52;;;;;;;3.71;55.75;99409.34;4443727;32;33308;-83
2021/01/13 07:37:23;;;;;;;2.92;1.65;;;;;;;3.40;56.21;99414.34;4457233;32;33290;-83
2021/01/13 07:39:58;;;;;;;3.25;1.75;;;;;;;3.53;56.14;99414.97;4459970;32;33566;-83
2021/01/13 07:42:39;;;;;;;5.72;2.15;;;;;;;3.76;55.94;99411.84;4457110;32;33756;-83
2021/01/13 07:45:10;;;;;;;5.47;1.25;;;;;;;3.62;56.12;99413.91;4460361;32;33148;-84
2021/01/13 07:47:56;;;;;;;4.95;2.10;;;;;;;3.85;55.03;99412.50;4463413;32;34592;-83
2021/01/13 07:50:24;;;;;;;12.82;4.15;;;;;;;3.49;56.41;99414.16;4459842;32;33818;-83
2021/01/13 07:52:52;;;;;;;10.65;4.00;;;;;;;3.60;56.74;99411.31;4460902;32;33569;-83
2021/01/13 07:55:23;;;;;;;2.85;1.33;;;;;;;3.96;54.83;99414.00;4463050;32;33316;-83
2021/01/13 07:57:55;;;;;;;4.27;1.57;;;;;;;3.87;55.31;99409.84;4458922;32;33483;-83
2021/01/13 08:00:36;;;;;;;3.55;1.65;;;;;;;3.64;55.81;99412.97;4451487;32;34804;-83
2021/01/13 08:03:26;;;;;;;3.62;1.30;;;;;;;3.72;56.22;99421.50;4460750;32;33635;-83
2021/01/13 08:06:26;;;;;;;3.10;1.33;;;;;;;3.96;55.10;99416.63;4453412;32;32968;-83
2021/01/13 08:09:12;;;;;;;1.60;0.95;;;;;;;3.75;56.30;99415.34;4455271;32;34199;-82
2021/01/13 08:11:48;;;;;;;1.30;1.08;;;;;;;3.62;56.50;99417.38;4443108;32;33132;-83
2021/01/13 08:14:48;;;;;;;5.87;1.25;;;;;;;3.52;57.08;99419.31;4467279;32;33343;-82
2021/01/13 08:17:40;;;;;;;0.88;0.70;;;;;;;3.71;56.80;99425.00;4455897;32;33236;-83
2021/01/13 08:20:21;;;;;;;3.50;0.95;;;;;;;3.82;56.05;99423.00;4459658;32;34317;-83
2021/01/13 08:22:59;;;;;;;4.12;1.00;;;;;;;3.43;57.20;99416.91;4455586;32;33702;-82
2021/01/13 08:25:27;;;;;;;1.52;0.70;;;;;;;4.07;54.37;99423.31;4461362;32;34024;-83
2021/01/13 08:27:56;;;;;;;5.60;1.10;;;;;;;4.10;54.42;99427.63;4456320;32;33387;-82
2021/01/13 08:30:30;;;;;;;4.20;0.77;;;;;;;3.85;55.45;99425.56;4448263;32;33621;-83
2021/01/13 08:32:58;;;;;;;3.05;1.05;;;;;;;4.30;54.07;99430.59;4458310;32;34481;-83
2021/01/13 08:35:34;;;;;;;1.65;0.68;;;;;;;4.42;53.90;99431.22;4462520;32;34446;-83
2021/01/13 08:38:07;;;;;;;3.55;1.20;;;;;;;4.43;54.02;99436.41;4458254;32;33887;-83
2021/01/13 08:40:37;;;;;;;3.67;2.05;;;;;;;4.20;55.15;99439.56;4461516;32;33679;-83
2021/01/13 08:43:13;;;;;;;2.20;1.05;;;;;;;4.38;53.80;99435.66;4457364;32;35528;-82
2021/01/13 08:45:50;;;;;;;3.45;1.00;;;;;;;4.25;53.87;99436.84;4448636;32;33771;-83
2021/01/13 08:48:19;;;;;;;4.40;1.80;;;;;;;3.95;55.55;99441.03;4459407;32;34115;-83
2021/01/13 08:51:08;;;;;;;2.97;1.00;;;;;;;4.33;54.61;99434.91;4450423;32;33641;-83
2021/01/13 08:53:36;;;;;;;6.65;1.33;;;;;;;4.62;53.47;99442.88;4458859;32;34290;-83
2021/01/13 08:56:04;;;;;;;4.03;0.90;;;;;;;4.81;52.47;99443.28;4460789;32;33341;-83
2021/01/13 08:58:33;;;;;;;5.20;1.50;;;;;;;4.44;53.50;99448.56;4449011;32;33006;-83
2021/01/13 09:01:06;;;;;;;4.72;1.30;;;;;;;4.72;52.88;99448.75;4459006;32;34376;-83
2021/01/13 09:03:40;;;;;;;2.40;1.15;;;;;;;4.72;53.24;99455.72;4447274;32;32717;-83
2021/01/13 09:06:22;;;;;;;4.60;1.17;;;;;;;4.81;53.31;99451.13;4447312;32;34209;-82
2021/01/13 09:08:50;;;;;;;3.10;0.87;;;;;;;4.79;53.24;99439.81;4459355;32;33569;-83
2021/01/13 09:11:51;;;;;;;2.83;1.00;;;;;;;4.23;55.08;99442.13;4464117;32;33964;-83
2021/01/13 09:14:23;;;;;;;3.92;0.90;;;;;;;4.59;54.27;99431.63;4443775;32;32692;-83
2021/01/13 09:16:54;;;;;;;2.50;0.82;;;;;;;4.82;52.98;99438.91;4454673;32;32928;-83
2021/01/13 09:19:39;;;;;;;3.85;1.20;;;;;;;4.65;54.05;99436.72;4444843;32;33209;-83
2021/01/13 09:22:09;;;;;;;1.92;0.70;;;;;;;4.84;53.38;99435.38;4464638;32;33391;-83
2021/01/13 09:24:38;;;;;;;12.20;1.77;;;;;;;5.16;52.36;99427.53;4458382;32;33441;-83
2021/01/13 09:27:08;;;;;;;4.68;1.12;;;;;;;4.88;53.71;99430.88;4462107;32;33705;-83
2021/01/13 09:29:53;;;;;;;4.82;0.98;;;;;;;5.10;52.89;99437.25;4434737;32;35161;-83
2021/01/13 09:32:22;;;;;;;3.87;1.12;;;;;;;5.13;52.70;99433.72;4450196;32;33754;-83
2021/01/13 09:34:58;;;;;;;4.03;0.88;;;;;;;5.24;52.10;99443.88;4460332;32;34219;-83
2021/01/13 09:37:26;;;;;;;2.80;1.00;;;;;;;4.81;53.42;99447.66;4446088;32;35129;-83
2021/01/13 09:40:01;;;;;;;1.92;0.90;;;;;;;5.28;51.93;99440.28;4463322;32;33563;-83
2021/01/13 09:42:37;;;;;;;4.22;1.05;;;;;;;5.28;51.84;99443.75;4460357;32;31816;-83
2021/01/13 09:45:05;;;;;;;2.95;1.02;;;;;;;5.23;51.69;99437.78;4457011;32;33844;-83
2021/01/13 09:47:33;;;;;;;4.78;1.00;;;;;;;5.33;51.73;99436.63;4460085;32;33632;-83
2021/01/13 09:50:01;;;;;;;4.97;1.30;;;;;;;5.55;50.59;99433.38;4469433;32;34176;-83
2021/01/13 09:52:43;;;;;;;5.07;0.82;;;;;;;5.36;51.28;99431.31;4461980;32;33347;-83
2021/01/13 09:55:11;;;;;;;;;;;;;;;5.29;51.39;99424.53;4459354;32;33804;-83
2021/01/13 09:57:39;;;;;;;3.17;1.02;;;;;;;5.28;51.04;99433.28;4456051;32;32916;-83
2021/01/13 10:00:08;;;;;;;6.43;1.02;;;;;;;5.17;52.39;99429.22;4446234;32;32156;-83
2021/01/13 10:02:46;;;;;;;2.87;0.90;;;;;;;5.29;52.58;99421.06;4458574;32;33386;-83
2021/01/13 10:05:14;;;;;;;2.15;0.95;;;;;;;5.28;51.48;99417.59;4447218;32;33379;-83
2021/01/13 10:07:44;;;;;;;2.42;1.12;;;;;;;5.72;50.30;99417.19;4456144;32;34796;-83
2021/01/13 10:10:13;;;;;;;5.10;1.42;;;;;;;5.38;50.72;99413.78;4459159;32;33500;-83
2021/01/13 10:12:46;;;;;;;9.00;1.20;;;;;;;5.63;50.47;99410.47;4447087;32;33357;-83
2021/01/13 10:15:14;;;;;;;1.62;0.90;;;;;;;5.61;51.05;99425.38;4443994;32;34666;-84
2021/01/13 10:17:43;;;;;;;2.37;0.95;;;;;;;5.67;50.52;99430.41;4464409;32;33687;-83
2021/01/13 10:20:29;;;;;;;2.55;1.62;;;;;;;5.59;51.66;99427.16;4448839;32;30511;-83
2021/01/13 10:23:00;;;;;;;7.47;0.93;;;;;;;5.48;52.63;99432.72;4457034;32;33563;-83
2021/01/13 10:25:33;;;;;;;2.05;0.82;;;;;;;5.59;52.27;99428.00;4443496;32;36187;-84
2021/01/13 10:28:01;;;;;;;5.05;1.67;;;;;;;6.03;50.64;99425.88;4463888;32;33646;-83
2021/01/13 10:30:29;;;;;;;2.53;0.98;;;;;;;6.18;50.49;99421.91;4459136;32;34360;-84
2021/01/13 10:32:57;;;;;;;2.45;1.25;;;;;;;6.34;49.14;99422.25;4459544;32;33256;-83
2021/01/13 10:35:36;;;;;;;2.60;1.25;;;;;;;5.92;51.48;99414.84;4457233;32;33755;-83
2021/01/13 10:38:04;;;;;;;2.97;1.20;;;;;;;6.31;49.31;99419.72;4458113;32;33669;-83
2021/01/13 10:40:32;;;;;;;6.95;0.93;;;;;;;6.25;49.31;99407.69;4446705;32;33979;-83
2021/01/13 10:42:59;;;;;;;1.05;0.57;;;;;;;6.02;49.57;99418.03;4456848;32;33354;-83
2021/01/13 10:45:27;;;;;;;5.72;1.20;;;;;;;6.07;49.55;99413.50;4450097;32;35859;-82
2021/01/13 10:48:00;;;;;;;3.33;0.80;;;;;;;5.71;50.62;99421.56;4456352;32;31479;-83
2021/01/13 10:50:30;;;;;;;4.60;1.00;;;;;;;5.72;49.85;99411.94;4458384;32;99298;-83
2021/01/13 10:52:59;;;;;;;8.70;1.12;;;;;;;5.89;49.47;99405.28;4449552;32;34718;-83
2021/01/13 10:55:28;;;;;;;5.93;0.95;;;;;;;5.83;50.24;99415.09;4458064;32;33529;-83
2021/01/13 10:57:57;;;;;;;2.50;0.80;;;;;;;5.92;49.04;99406.97;4457343;32;33951;-83
2021/01/13 11:00:27;;;;;;;4.15;0.90;;;;;;;5.80;50.33;99410.81;4446157;32;33649;-83
2021/01/13 11:02:59;;;;;;;6.30;0.70;;;;;;;5.87;48.79;99391.37;4444203;32;34999;-83
2021/01/13 11:05:28;;;;;;;3.60;0.60;;;;;;;5.83;49.44;99402.84;4458250;32;33239;-83
2021/01/13 11:07:58;;;;;;;4.65;0.60;;;;;;;5.80;49.95;99399.47;4456397;32;33234;-83
2021/01/13 11:10:25;;;;;;;8.70;1.35;;;;;;;6.02;48.68;99404.94;4446069;32;31267;-83
2021/01/13 11:13:04;;;;;;;2.28;0.70;;;;;;;6.18;48.37;99395.69;4446658;32;33654;-83
2021/01/13 11:15:32;;;;;;;3.10;0.73;;;;;;;6.15;49.02;99395.78;4447571;32;33524;-83
2021/01/13 11:18:07;;;;;;;5.60;0.88;;;;;;;6.08;48.72;99415.25;4459240;32;33429;-83
2021/01/13 11:20:34;;;;;;;3.60;1.27;;;;;;;6.02;47.85;99397.06;4456003;32;31275;-83
2021/01/13 11:23:02;;;;;;;2.75;0.98;;;;;;;6.04;47.35;99397.91;4446345;32;33979;-83
2021/01/13 11:25:36;;;;;;;3.95;1.27;;;;;;;6.19;48.31;99407.88;4457880;32;32923;-83
2021/01/13 11:28:04;;;;;;;8.98;0.98;;;;;;;6.14;47.61;99399.31;4448605;32;34128;-83
2021/01/13 11:30:34;;;;;;;3.45;1.10;;;;;;;6.12;47.07;99406.34;4460980;32;35999;-84
2021/01/13 11:33:03;;;;;;;3.15;0.62;;;;;;;5.80;47.84;99416.06;4457601;32;33596;-83
2021/01/13 11:35:38;;;;;;;2.87;1.30;;;;;;;5.97;47.87;99418.16;4434083;32;35872;-83
2021/01/13 11:38:17;;;;;;;2.78;0.70;;;;;;;6.14;47.64;99423.75;4457056;32;35617;-83
2021/01/13 11:41:16;;;;;;;5.85;1.00;;;;;;;6.12;47.59;99422.06;4457116;32;33804;-83
2021/01/13 11:44:10;;;;;;;2.47;0.70;;;;;;;5.70;48.88;99425.09;4453606;32;34333;-83
2021/01/13 11:46:42;;;;;;;1.50;0.40;;;;;;;6.19;47.82;99422.75;4459543;32;34714;-83
2021/01/13 11:49:25;;;;;;;3.83;0.75;;;;;;;5.95;49.07;99425.25;4455341;32;33871;-83
2021/01/13 11:51:54;;;;;;;9.77;1.20;;;;;;;6.19;48.22;99423.59;4465525;32;32562;-83
2021/01/13 11:54:29;;;;;;;3.70;0.80;;;;;;;6.36;47.32;99426.56;4459918;32;34672;-84
2021/01/13 11:57:25;;;;;;;3.92;0.50;;;;;;;6.42;46.94;99420.25;4459704;32;37150;-84
2021/01/13 12:00:10;;;;;;;5.22;0.70;;;;;;;5.98;46.26;99408.53;4447131;32;34026;-83
2021/01/13 12:02:38;;;;;;;2.53;0.95;;;;;;;5.88;47.49;99414.03;4459130;32;31239;-83